createdAt,value
2022-09-29T00:00:08.690Z,91454.97
2022-09-29T00:02:51.654Z,91448.69
2022-09-29T00:05:34.902Z,91451.09
2022-09-29T00:08:18.897Z,91453.81
2022-09-29T00:11:01.780Z,91448.25
2022-09-29T00:13:45.128Z,91455.94
2022-09-29T00:16:29.507Z,91442.31
2022-09-29T00:19:12.360Z,91449.03
2022-09-29T00:21:55.276Z,91452.56
2022-09-29T00:24:38.158Z,91452.56
2022-09-29T00:27:21.552Z,91451.16
2022-09-29T00:30:04.850Z,91463.16
2022-09-29T00:32:49.081Z,91459.78
2022-09-29T00:35:31.969Z,91460.59
2022-09-29T00:38:14.769Z,91458.03
2022-09-29T00:40:58.033Z,91459.97
2022-09-29T00:43:54.556Z,91459.34
2022-09-29T00:46:44.646Z,91455.19
2022-09-29T00:49:36.557Z,91450.84
2022-09-29T00:52:22.708Z,91446.88
2022-09-29T00:55:12.027Z,91450.25
2022-09-29T00:57:58.708Z,91440.81
2022-09-29T01:00:41.696Z,91437.28
2022-09-29T01:03:30.049Z,91438.88
2022-09-29T01:06:19.779Z,91429.41
2022-09-29T01:09:05.190Z,91435.34
2022-09-29T01:11:48.248Z,91430.38
2022-09-29T01:14:32.881Z,91435.88
2022-09-29T01:17:15.802Z,91437.81
2022-09-29T01:20:09.100Z,91432.84
2022-09-29T01:23:33.743Z,91450.94
2022-09-29T01:26:47.026Z,91442.00
2022-09-29T01:30:02.276Z,91449.06
2022-09-29T01:32:55.990Z,91448.59
2022-09-29T01:35:48.515Z,91445.59
2022-09-29T01:38:43.955Z,91448.84
2022-09-29T01:41:35.435Z,91445.50
2022-09-29T01:44:25.547Z,91452.38
2022-09-29T01:47:11.727Z,91449.81
2022-09-29T01:50:02.800Z,91440.53
2022-09-29T01:52:49.288Z,91449.03
2022-09-29T01:55:36.500Z,91443.28
2022-09-29T01:58:24.836Z,91443.28
2022-09-29T02:01:13.767Z,91444.25
2022-09-29T02:04:02.392Z,91439.13
2022-09-29T02:06:51.034Z,91440.09
2022-09-29T02:09:40.365Z,91440.25
2022-09-29T02:12:29.306Z,91439.63
2022-09-29T02:15:20.131Z,91441.56
2022-09-29T02:18:10.774Z,91435.63
2022-09-29T02:20:53.721Z,91437.22
2022-09-29T02:23:38.048Z,91437.22
2022-09-29T02:26:22.171Z,91442.00
2022-09-29T02:29:06.399Z,91440.41
2022-09-29T02:31:50.334Z,91437.84
2022-09-29T02:34:41.319Z,91443.59
2022-09-29T02:37:36.756Z,91440.09
2022-09-29T02:40:33.749Z,91441.03
2022-09-29T02:43:29.095Z,91440.09
2022-09-29T02:46:25.687Z,91440.72
2022-09-29T02:49:32.294Z,91441.50
2022-09-29T02:52:26.470Z,91440.38
2022-09-29T02:55:17.327Z,91439.75
2022-09-29T02:58:08.367Z,91433.81
2022-09-29T03:00:51.459Z,91429.50
2022-09-29T03:03:34.612Z,91431.44
2022-09-29T03:06:21.597Z,91431.44
2022-09-29T03:09:04.600Z,91429.66
2022-09-29T03:11:47.520Z,91429.84
2022-09-29T03:14:31.808Z,91432.22
2022-09-29T03:17:14.748Z,91440.72
2022-09-29T03:19:57.750Z,91440.38
2022-09-29T03:22:40.623Z,91441.97
2022-09-29T03:25:24.192Z,91439.22
2022-09-29T03:28:07.028Z,91437.44
2022-09-29T03:30:51.201Z,91437.28
2022-09-29T03:33:34.125Z,91442.56
2022-09-29T03:36:17.060Z,91444.53
2022-09-29T03:38:59.976Z,91439.41
2022-09-29T03:41:42.802Z,91434.09
2022-09-29T03:44:25.706Z,91448.50
2022-09-29T03:47:09.916Z,91445.75
2022-09-29T03:49:52.781Z,91442.22
2022-09-29T03:52:35.677Z,91447.97
2022-09-29T03:55:18.568Z,91442.72
2022-09-29T03:58:01.415Z,91442.72
2022-09-29T04:00:44.629Z,91447.00
2022-09-29T04:03:28.839Z,91448.78
2022-09-29T04:06:11.691Z,91449.56
2022-09-29T04:08:54.559Z,91453.09
2022-09-29T04:11:37.456Z,91455.66
2022-09-29T04:14:20.301Z,91450.53
2022-09-29T04:17:03.163Z,91461.59
2022-09-29T04:19:47.402Z,91458.22
2022-09-29T04:22:30.226Z,91453.72
2022-09-29T04:25:13.056Z,91450.19
2022-09-29T04:27:55.921Z,91452.75
2022-09-29T04:30:38.799Z,91448.59
2022-09-29T04:33:21.640Z,91441.44
2022-09-29T04:36:06.628Z,91448.94
2022-09-29T04:38:51.523Z,91447.19
2022-09-29T04:41:36.099Z,91448.59
2022-09-29T04:44:20.276Z,91445.88
2022-09-29T04:47:03.164Z,91452.44
2022-09-29T04:49:46.011Z,91446.34
2022-09-29T04:52:30.237Z,91446.97
2022-09-29T04:55:13.650Z,91449.53
2022-09-29T04:57:56.546Z,91438.28
2022-09-29T05:00:39.467Z,91448.53
2022-09-29T05:03:23.573Z,91441.22
2022-09-29T05:06:07.017Z,91443.16
2022-09-29T05:08:51.237Z,91448.59
2022-09-29T05:11:34.405Z,91444.28
2022-09-29T05:14:17.269Z,91436.59
2022-09-29T05:17:00.371Z,91435.03
2022-09-29T05:19:43.187Z,91438.56
2022-09-29T05:22:26.148Z,91437.59
2022-09-29T05:25:11.413Z,91447.00
2022-09-29T05:27:54.365Z,91454.88
2022-09-29T05:30:37.210Z,91456.63
2022-09-29T05:33:20.047Z,91450.88
2022-09-29T05:36:06.787Z,91456.00
2022-09-29T05:38:49.710Z,91454.25
2022-09-29T05:41:34.112Z,91456.81
2022-09-29T05:44:17.582Z,91460.16
2022-09-29T05:47:00.484Z,91460.34
2022-09-29T05:49:43.320Z,91451.56
2022-09-29T05:52:26.159Z,91457.66
2022-09-29T05:55:11.063Z,91460.03
2022-09-29T05:57:55.333Z,91461.00
2022-09-29T06:00:38.187Z,91457.38
2022-09-29T06:03:21.068Z,91459.63
2022-09-29T06:06:08.657Z,91455.84
2022-09-29T06:08:52.368Z,91460.00
2022-09-29T06:11:35.529Z,91459.00
2022-09-29T06:14:20.095Z,91455.66
2022-09-29T06:17:02.937Z,91451.84
2022-09-29T06:19:45.822Z,91449.47
2022-09-29T06:22:28.714Z,91450.59
2022-09-29T06:25:11.514Z,91447.25
2022-09-29T06:27:54.389Z,91446.28
2022-09-29T06:30:38.549Z,91434.88
2022-09-29T06:33:21.772Z,91438.09
2022-09-29T06:36:30.201Z,91437.31
2022-09-29T06:39:15.093Z,91452.47
2022-09-29T06:41:58.227Z,91453.28
2022-09-29T06:44:41.060Z,91454.88
2022-09-29T06:47:25.544Z,91442.69
2022-09-29T06:50:16.282Z,91436.25
2022-09-29T06:53:06.405Z,91426.22
2022-09-29T06:55:53.692Z,91436.97
2022-09-29T06:58:36.916Z,91444.13
2022-09-29T07:01:19.879Z,91437.72
2022-09-29T07:04:04.243Z,91439.75
2022-09-29T07:06:47.258Z,91443.38
2022-09-29T07:09:30.132Z,91442.09
2022-09-29T07:12:12.996Z,91436.59
2022-09-29T07:14:56.419Z,91438.81
2022-09-29T07:17:39.291Z,91444.75
2022-09-29T07:20:23.526Z,91438.81
2022-09-29T07:23:06.441Z,91439.28
2022-09-29T07:25:51.942Z,91443.69
2022-09-29T07:28:36.284Z,91452.44
2022-09-29T07:31:21.758Z,91457.69
2022-09-29T07:34:04.671Z,91459.56
2022-09-29T07:36:48.879Z,91462.56
2022-09-29T07:39:31.808Z,91457.53
2022-09-29T07:42:14.612Z,91462.16
2022-09-29T07:44:57.694Z,91458.88
2022-09-29T07:47:40.552Z,91461.91
2022-09-29T07:50:23.382Z,91467.81
2022-09-29T07:53:07.707Z,91469.50
2022-09-29T07:55:50.917Z,91471.63
2022-09-29T07:58:35.067Z,91465.28
2022-09-29T08:01:20.134Z,91475.56
2022-09-29T08:04:03.545Z,91479.59
2022-09-29T08:06:46.721Z,91484.03
2022-09-29T08:09:39.947Z,91482.13
2022-09-29T08:12:25.337Z,91479.56
2022-09-29T08:15:10.495Z,91490.59
2022-09-29T08:17:53.739Z,91488.53
2022-09-29T08:20:36.984Z,91501.69
2022-09-29T08:23:19.785Z,91495.38
2022-09-29T08:26:04.896Z,91492.63
2022-09-29T08:28:58.740Z,91496.16
2022-09-29T08:31:45.008Z,91495.91
2022-09-29T08:34:27.887Z,91502.69
2022-09-29T08:37:11.539Z,91506.84
2022-09-29T08:39:54.492Z,91510.66
2022-09-29T08:42:49.315Z,91513.66
2022-09-29T08:45:39.162Z,91510.31
2022-09-29T08:48:26.147Z,91511.91
2022-09-29T08:51:25.574Z,91519.88
2022-09-29T08:54:33.280Z,91511.09
2022-09-29T08:57:21.322Z,91507.06
2022-09-29T09:00:08.807Z,91511.22
2022-09-29T09:03:15.101Z,91519.38
2022-09-29T09:06:15.465Z,91516.56
2022-09-29T09:09:25.437Z,91515.31
2022-09-29T09:12:28.913Z,91521.78
2022-09-29T09:15:27.319Z,91524.31
2022-09-29T09:18:32.847Z,91525.66
2022-09-29T09:21:19.439Z,91531.69
2022-09-29T09:24:09.737Z,91534.81
2022-09-29T09:26:53.435Z,91535.25
2022-09-29T09:29:41.310Z,91541.53
2022-09-29T09:32:31.176Z,91532.25
2022-09-29T09:35:31.122Z,91536.63
2022-09-29T09:38:17.813Z,91532.09
2022-09-29T09:41:02.475Z,91530.22
2022-09-29T09:43:50.185Z,91530.13
2022-09-29T09:46:41.303Z,91531.34
2022-09-29T09:49:31.306Z,91528.19
2022-09-29T09:52:20.110Z,91518.16
2022-09-29T09:55:05.903Z,91518.59
2022-09-29T09:58:03.107Z,91521.00
2022-09-29T10:00:51.628Z,91515.03
2022-09-29T10:03:35.296Z,91517.81
2022-09-29T10:06:19.801Z,91513.06
2022-09-29T10:09:02.729Z,91502.97
2022-09-29T10:11:46.504Z,91498.03
2022-09-29T10:14:29.748Z,91493.88
2022-09-29T10:17:17.738Z,91500.41
2022-09-29T10:20:02.236Z,91497.41
2022-09-29T10:22:51.113Z,91506.75
2022-09-29T10:25:34.884Z,91490.50
2022-09-29T10:28:17.794Z,91488.91
2022-09-29T10:31:00.905Z,91482.94
2022-09-29T10:33:50.192Z,91485.91
2022-09-29T10:36:35.322Z,91484.13
2022-09-29T10:39:33.621Z,91491.28
2022-09-29T10:42:25.102Z,91490.28
2022-09-29T10:45:14.080Z,91495.06
2022-09-29T10:48:13.952Z,91498.03
2022-09-29T10:53:47.251Z,91507.59
2022-09-29T10:56:31.574Z,91504.00
2022-09-29T10:59:15.353Z,91506.38
2022-09-29T11:02:01.821Z,91515.53
2022-09-29T11:04:48.101Z,91505.19
2022-09-29T11:07:34.245Z,91516.72
2022-09-29T11:10:29.645Z,91503.41
2022-09-29T11:13:36.392Z,91509.38
2022-09-29T11:16:24.438Z,91515.53
2022-09-29T11:19:11.049Z,91513.13
2022-09-29T11:22:19.929Z,91516.91
2022-09-29T11:25:30.369Z,91518.69
2022-09-29T11:28:25.382Z,91524.06
2022-09-29T11:31:31.546Z,91524.66
2022-09-29T11:34:37.354Z,91520.47
2022-09-29T11:37:39.595Z,91516.88
2022-09-29T11:40:31.553Z,91521.06
2022-09-29T11:43:29.899Z,91517.91
2022-09-29T11:46:27.092Z,91517.13
2022-09-29T11:49:24.151Z,91519.72
2022-09-29T11:52:35.475Z,91522.66
2022-09-29T11:55:35.456Z,91517.72
2022-09-29T11:58:32.488Z,91525.44
2022-09-29T12:01:30.744Z,91521.44
2022-09-29T12:04:34.232Z,91518.09
2022-09-29T12:07:30.803Z,91529.41
2022-09-29T12:10:33.808Z,91516.88
2022-09-29T12:13:26.373Z,91524.03
2022-09-29T12:16:13.619Z,91520.84
2022-09-29T12:19:02.878Z,91512.28
2022-09-29T12:21:50.513Z,91506.50
2022-09-29T12:24:37.532Z,91518.25
2022-09-29T12:27:26.088Z,91498.00
2022-09-29T12:30:19.782Z,91506.56
2022-09-29T12:33:09.033Z,91501.00
2022-09-29T12:36:04.413Z,91505.38
2022-09-29T12:38:48.464Z,91495.06
2022-09-29T12:41:36.931Z,91494.25
2022-09-29T12:44:28.834Z,91493.66
2022-09-29T12:47:20.813Z,91500.59
2022-09-29T12:50:10.747Z,91499.97
2022-09-29T12:53:00.090Z,91499.97
2022-09-29T12:55:49.270Z,91498.78
2022-09-29T12:58:40.248Z,91501.38
2022-09-29T13:01:27.955Z,91506.38
2022-09-29T13:04:34.690Z,91509.16
2022-09-29T13:07:47.676Z,91522.66
2022-09-29T13:10:44.355Z,91515.53
2022-09-29T13:13:54.094Z,91521.09
2022-09-29T13:16:51.374Z,91525.84
2022-09-29T13:20:07.498Z,91521.69
2022-09-29T13:23:11.625Z,91521.09
2022-09-29T13:26:07.040Z,91523.25
2022-09-29T13:28:54.309Z,91517.91
2022-09-29T13:31:43.374Z,91521.06
2022-09-29T13:34:32.111Z,91531.59
2022-09-29T13:37:17.906Z,91523.63
2022-09-29T13:40:09.085Z,91531.78
2022-09-29T13:42:56.769Z,91526.19
2022-09-29T13:45:46.762Z,91537.91
2022-09-29T13:48:50.647Z,91537.69
2022-09-29T13:51:52.707Z,91535.50
2022-09-29T13:54:43.063Z,91531.34
2022-09-29T13:57:27.933Z,91540.28
2022-09-29T14:00:21.987Z,91537.69
2022-09-29T14:03:08.739Z,91531.53
2022-09-29T14:06:39.677Z,91533.88
2022-09-29T14:09:23.403Z,91541.78
2022-09-29T14:12:10.762Z,91544.97
2022-09-29T14:14:58.135Z,91552.50
2022-09-29T14:17:50.933Z,91547.50
2022-09-29T14:20:37.258Z,91558.38
2022-09-29T14:23:52.983Z,91551.81
2022-09-29T14:26:48.609Z,91563.16
2022-09-29T14:29:35.263Z,91555.78
2022-09-29T14:32:22.015Z,91554.94
2022-09-29T14:35:16.697Z,91559.84
2022-09-29T14:38:04.710Z,91560.84
2022-09-29T14:40:59.301Z,91573.91
2022-09-29T14:43:46.079Z,91574.13
2022-09-29T14:47:15.504Z,91575.47
2022-09-29T14:50:54.245Z,91578.44
2022-09-29T14:54:00.364Z,91584.97
2022-09-29T14:56:53.265Z,91583.81
2022-09-29T14:59:48.728Z,91584.78
2022-09-29T15:02:34.297Z,91582.38
2022-09-29T15:05:30.784Z,91584.56
2022-09-29T15:08:29.135Z,91585.53
2022-09-29T15:11:30.729Z,91590.88
2022-09-29T15:14:25.319Z,91584.72
2022-09-29T15:17:18.726Z,91587.06
2022-09-29T15:20:09.835Z,91591.81
2022-09-29T15:23:12.451Z,91590.75
2022-09-29T15:28:46.136Z,91603.97
2022-09-29T15:31:34.252Z,91608.06
2022-09-29T15:34:21.461Z,91611.63
2022-09-29T15:37:06.323Z,91609.63
2022-09-29T15:39:53.605Z,91614.34
2022-09-29T15:42:39.934Z,91612.34
2022-09-29T15:45:27.347Z,91608.50
2022-09-29T15:48:16.393Z,91607.72
2022-09-29T15:51:01.932Z,91608.50
2022-09-29T15:53:46.851Z,91607.72
2022-09-29T15:56:31.758Z,91615.59
2022-09-29T15:59:19.327Z,91620.13
2022-09-29T16:02:06.558Z,91625.84
2022-09-29T16:04:53.495Z,91632.94
2022-09-29T16:07:39.356Z,91626.41
2022-09-29T16:10:25.179Z,91627.13
2022-09-29T16:13:22.360Z,91628.31
2022-09-29T16:16:08.156Z,91628.31
2022-09-29T16:18:52.981Z,91625.47
2022-09-29T16:21:37.310Z,91627.63
2022-09-29T16:24:21.624Z,91635.34
2022-09-29T16:27:05.097Z,91627.00
2022-09-29T16:30:07.243Z,91631.38
2022-09-29T16:32:57.188Z,91621.09
2022-09-29T16:35:49.256Z,91621.09
2022-09-29T16:38:35.591Z,91633.31
2022-09-29T16:41:27.687Z,91637.66
2022-09-29T16:44:17.672Z,91631.28
2022-09-29T16:47:04.899Z,91630.06
2022-09-29T16:49:51.002Z,91639.75
2022-09-29T16:52:44.096Z,91649.22
2022-09-29T16:55:29.316Z,91651.00
2022-09-29T16:58:15.100Z,91649.22
2022-09-29T17:00:58.623Z,91651.00
2022-09-29T17:03:43.211Z,91648.00
2022-09-29T17:06:26.101Z,91656.84
2022-09-29T17:09:17.332Z,91661.22
2022-09-29T17:12:00.282Z,91663.94
2022-09-29T17:14:45.326Z,91656.78
2022-09-29T17:17:29.535Z,91654.97
2022-09-29T17:20:16.816Z,91660.63
2022-09-29T17:23:00.964Z,91657.97
2022-09-29T17:25:46.485Z,91662.69
2022-09-29T17:28:32.140Z,91660.31
2022-09-29T17:31:17.305Z,91664.63
2022-09-29T17:34:00.194Z,91672.34
2022-09-29T17:36:45.548Z,91674.13
2022-09-29T17:39:28.911Z,91678.44
2022-09-29T17:42:12.051Z,91686.97
2022-09-29T17:44:54.883Z,91681.81
2022-09-29T17:47:37.889Z,91681.00
2022-09-29T17:50:26.167Z,91692.09
2022-09-29T17:53:11.625Z,91693.84
2022-09-29T17:55:57.234Z,91682.97
2022-09-29T17:58:40.248Z,91683.06
2022-09-29T18:01:26.278Z,91685.19
2022-09-29T18:04:10.399Z,91690.50
2022-09-29T18:06:53.231Z,91686.06
2022-09-29T18:09:40.179Z,91700.25
2022-09-29T18:12:23.044Z,91699.00
2022-09-29T18:15:06.979Z,91698.56
2022-09-29T18:17:49.869Z,91702.28
2022-09-29T18:20:36.014Z,91699.09
2022-09-29T18:23:21.368Z,91694.75
2022-09-29T18:26:07.547Z,91697.50
2022-09-29T18:28:51.515Z,91702.66
2022-09-29T18:31:35.284Z,91703.63
2022-09-29T18:34:20.332Z,91710.50
2022-09-29T18:37:04.772Z,91716.63
2022-09-29T18:39:47.641Z,91712.63
2022-09-29T18:42:32.388Z,91708.81
2022-09-29T18:45:22.960Z,91714.63
2022-09-29T18:48:07.956Z,91714.53
2022-09-29T18:50:52.292Z,91717.47
2022-09-29T18:53:35.556Z,91733.38
2022-09-29T18:56:18.449Z,91736.91
2022-09-29T18:59:05.658Z,91734.19
2022-09-29T19:01:49.458Z,91740.28
2022-09-29T19:04:33.056Z,91745.25
2022-09-29T19:07:15.933Z,91744.63
2022-09-29T19:09:59.318Z,91740.19
2022-09-29T19:12:45.427Z,91747.41
2022-09-29T19:15:33.096Z,91747.41
2022-09-29T19:18:23.605Z,91757.69
2022-09-29T19:21:12.076Z,91765.38
2022-09-29T19:23:55.411Z,91770.34
2022-09-29T19:26:38.705Z,91770.50
2022-09-29T19:29:21.859Z,91779.19
2022-09-29T19:32:06.230Z,91779.88
2022-09-29T19:34:49.390Z,91786.66
2022-09-29T19:37:33.113Z,91789.91
2022-09-29T19:40:19.802Z,91788.78
2022-09-29T19:43:05.067Z,91798.91
2022-09-29T19:45:48.447Z,91804.72
2022-09-29T19:48:32.650Z,91801.53
2022-09-29T19:51:34.435Z,91799.94
2022-09-29T19:54:19.502Z,91803.31
2022-09-29T19:57:05.593Z,91805.25
2022-09-29T19:59:48.455Z,91802.19
2022-09-29T20:02:31.370Z,91807.31
2022-09-29T20:05:16.436Z,91804.13
2022-09-29T20:07:59.321Z,91807.69
2022-09-29T20:10:42.516Z,91815.97
2022-09-29T20:13:25.456Z,91812.94
2022-09-29T20:16:08.792Z,91823.47
2022-09-29T20:18:51.691Z,91816.59
2022-09-29T20:21:40.520Z,91820.75
2022-09-29T20:24:25.380Z,91825.88
2022-09-29T20:27:08.266Z,91825.88
2022-09-29T20:29:51.413Z,91833.56
2022-09-29T20:32:34.619Z,91829.91
2022-09-29T20:35:17.584Z,91828.34
2022-09-29T20:38:03.554Z,91827.25
2022-09-29T20:40:47.151Z,91831.09
2022-09-29T20:43:30.370Z,91827.75
2022-09-29T20:46:14.483Z,91831.09
2022-09-29T20:48:59.200Z,91833.84
2022-09-29T20:51:41.846Z,91834.97
2022-09-29T20:54:26.102Z,91834.97
2022-09-29T20:57:08.930Z,91841.69
2022-09-29T20:59:51.754Z,91845.06
2022-09-29T21:02:34.778Z,91844.09
2022-09-29T21:05:17.834Z,91841.69
2022-09-29T21:08:00.667Z,91847.63
2022-09-29T21:10:44.829Z,91849.38
2022-09-29T21:13:27.708Z,91851.94
2022-09-29T21:16:10.643Z,91857.69
2022-09-29T21:18:54.537Z,91863.31
2022-09-29T21:21:38.055Z,91866.34
2022-09-29T21:24:21.028Z,91876.41
2022-09-29T21:27:05.308Z,91876.25
2022-09-29T21:29:48.148Z,91872.75
2022-09-29T21:32:31.006Z,91872.56
2022-09-29T21:35:13.906Z,91871.59
2022-09-29T21:37:56.765Z,91864.88
2022-09-29T21:40:39.624Z,91873.69
2022-09-29T21:43:23.822Z,91870.66
2022-09-29T21:46:08.837Z,91874.34
2022-09-29T21:48:52.631Z,91869.72
2022-09-29T21:51:37.856Z,91865.72
2022-09-29T21:54:22.991Z,91877.56
2022-09-29T21:57:06.903Z,91875.00
2022-09-29T21:59:51.231Z,91876.78
2022-09-29T22:02:34.228Z,91867.66
2022-09-29T22:05:17.206Z,91873.75
2022-09-29T22:08:00.146Z,91870.56
2022-09-29T22:10:43.034Z,91875.22
2022-09-29T22:13:27.449Z,91875.38
2022-09-29T22:16:13.875Z,91880.81
2022-09-29T22:19:21.354Z,91876.81
2022-09-29T22:22:01.065Z,91874.09
2022-09-29T22:24:44.042Z,91870.75
2022-09-29T22:27:27.168Z,91864.19
2022-09-29T22:30:11.468Z,91868.50
2022-09-29T22:32:55.657Z,91876.81
2022-09-29T22:35:39.312Z,91875.69
2022-09-29T22:38:22.189Z,91875.69
2022-09-29T22:41:09.700Z,91872.16
2022-09-29T22:43:53.572Z,91879.72
2022-09-29T22:46:36.858Z,91873.78
2022-09-29T22:49:21.771Z,91877.28
2022-09-29T22:52:04.874Z,91881.63
2022-09-29T22:54:47.711Z,91880.03
2022-09-29T22:57:30.822Z,91883.56
2022-09-29T23:00:14.206Z,91880.19
2022-09-29T23:02:57.087Z,91876.38
2022-09-29T23:05:41.401Z,91887.41
2022-09-29T23:08:24.382Z,91886.44
2022-09-29T23:11:08.478Z,91888.22
2022-09-29T23:13:52.841Z,91893.16
2022-09-29T23:16:35.858Z,91891.75
2022-09-29T23:19:19.845Z,91894.31
2022-09-29T23:22:04.036Z,91891.75
2022-09-29T23:24:46.888Z,91894.13
2022-09-29T23:27:31.747Z,91892.53
2022-09-29T23:30:14.634Z,91893.66
2022-09-29T23:32:57.519Z,91893.03
2022-09-29T23:35:40.348Z,91892.22
2022-09-29T23:38:42.131Z,91896.88
2022-09-29T23:41:27.166Z,91903.91
2022-09-29T23:44:11.417Z,91898.97
2022-09-29T23:46:55.544Z,91903.13
2022-09-29T23:49:38.925Z,91897.38
2022-09-29T23:52:23.914Z,91900.72
2022-09-29T23:55:08.800Z,91903.28
2022-09-29T23:57:51.647Z,91900.09
